sensor_id;sensor_type;location;lat;lon;timestamp;pressure;altitude;pressure_sealevel;temperature;humidity
11011;BME280;5558;42.702;23.178;2023-07-31T00:02:14;93431.19;;;19.39;100.00
11011;BME280;5558;42.702;23.178;2023-07-31T00:04:41;93431.06;;;19.27;100.00
11011;BME280;5558;42.702;23.178;2023-07-31T00:07:08;93413.38;;;19.26;100.00
11011;BME280;5558;42.702;23.178;2023-07-31T00:09:34;93431.72;;;19.33;100.00
11011;BME280;5558;42.702;23.178;2023-07-31T00:12:01;93439.78;;;19.24;100.00
11011;BME280;5558;42.702;23.178;2023-07-31T00:14:28;93434.09;;;19.26;100.00
11011;BME280;5558;42.702;23.178;2023-07-31T00:16:55;93428.44;;;19.19;100.00
11011;BME280;5558;42.702;23.178;2023-07-31T00:19:23;93434.47;;;19.07;100.00
11011;BME280;5558;42.702;23.178;2023-07-31T00:21:49;93425.16;;;19.05;100.00
11011;BME280;5558;42.702;23.178;2023-07-31T00:24:16;93424.69;;;19.03;100.00
11011;BME280;5558;42.702;23.178;2023-07-31T00:26:43;93416.81;;;18.98;100.00
11011;BME280;5558;42.702;23.178;2023-07-31T00:29:09;93419.50;;;18.98;100.00
11011;BME280;5558;42.702;23.178;2023-07-31T00:31:36;93406.41;;;18.96;100.00
11011;BME280;5558;42.702;23.178;2023-07-31T00:34:03;93402.53;;;18.85;100.00
11011;BME280;5558;42.702;23.178;2023-07-31T00:36:31;93398.72;;;18.86;100.00
11011;BME280;5558;42.702;23.178;2023-07-31T00:38:57;93404.94;;;18.70;100.00
11011;BME280;5558;42.702;23.178;2023-07-31T00:41:24;93401.13;;;18.71;100.00
11011;BME280;5558;42.702;23.178;2023-07-31T00:43:51;93412.69;;;18.63;100.00
11011;BME280;5558;42.702;23.178;2023-07-31T00:46:17;93415.22;;;18.59;100.00
11011;BME280;5558;42.702;23.178;2023-07-31T00:48:44;93413.19;;;18.56;100.00
11011;BME280;5558;42.702;23.178;2023-07-31T00:51:11;93412.69;;;18.54;100.00
11011;BME280;5558;42.702;23.178;2023-07-31T00:53:40;93407.66;;;18.61;100.00
11011;BME280;5558;42.702;23.178;2023-07-31T00:56:06;93392.38;;;18.53;100.00
11011;BME280;5558;42.702;23.178;2023-07-31T00:58:34;93411.63;;;18.55;100.00
11011;BME280;5558;42.702;23.178;2023-07-31T01:01:00;93416.66;;;18.57;100.00
11011;BME280;5558;42.702;23.178;2023-07-31T01:03:27;93417.41;;;18.57;100.00
11011;BME280;5558;42.702;23.178;2023-07-31T01:06:04;93408.75;;;18.60;100.00
11011;BME280;5558;42.702;23.178;2023-07-31T01:08:40;93415.69;;;18.61;100.00
11011;BME280;5558;42.702;23.178;2023-07-31T01:11:13;93411.28;;;18.57;100.00
11011;BME280;5558;42.702;23.178;2023-07-31T01:13:42;93413.84;;;18.45;100.00
11011;BME280;5558;42.702;23.178;2023-07-31T01:16:09;93417.75;;;18.47;100.00
11011;BME280;5558;42.702;23.178;2023-07-31T01:18:36;93419.53;;;18.43;100.00
11011;BME280;5558;42.702;23.178;2023-07-31T01:21:12;93429.75;;;18.41;100.00
11011;BME280;5558;42.702;23.178;2023-07-31T01:24:04;93434.31;;;18.41;100.00
11011;BME280;5558;42.702;23.178;2023-07-31T01:26:36;93433.69;;;18.26;100.00
11011;BME280;5558;42.702;23.178;2023-07-31T01:29:09;93442.97;;;18.29;100.00
11011;BME280;5558;42.702;23.178;2023-07-31T01:31:39;93447.22;;;18.21;100.00
11011;BME280;5558;42.702;23.178;2023-07-31T01:34:08;93457.50;;;18.19;100.00
11011;BME280;5558;42.702;23.178;2023-07-31T01:36:36;93458.44;;;18.23;100.00
11011;BME280;5558;42.702;23.178;2023-07-31T01:39:03;93466.31;;;18.28;100.00
11011;BME280;5558;42.702;23.178;2023-07-31T01:41:30;93463.16;;;18.35;100.00
11011;BME280;5558;42.702;23.178;2023-07-31T01:43:58;93454.34;;;18.35;100.00
11011;BME280;5558;42.702;23.178;2023-07-31T01:46:25;93463.94;;;18.53;100.00
11011;BME280;5558;42.702;23.178;2023-07-31T01:48:51;93451.81;;;18.64;100.00
11011;BME280;5558;42.702;23.178;2023-07-31T01:51:18;93450.03;;;18.68;100.00
11011;BME280;5558;42.702;23.178;2023-07-31T01:53:45;93443.88;;;18.67;100.00
11011;BME280;5558;42.702;23.178;2023-07-31T01:56:11;93439.47;;;18.71;100.00
11011;BME280;5558;42.702;23.178;2023-07-31T01:58:38;93439.78;;;18.70;100.00
11011;BME280;5558;42.702;23.178;2023-07-31T02:01:06;93440.56;;;18.79;100.00
11011;BME280;5558;42.702;23.178;2023-07-31T02:03:33;93437.09;;;18.78;100.00
11011;BME280;5558;42.702;23.178;2023-07-31T02:06:00;93438.50;;;18.76;100.00
11011;BME280;5558;42.702;23.178;2023-07-31T02:08:26;93427.59;;;18.81;100.00
11011;BME280;5558;42.702;23.178;2023-07-31T02:10:53;93390.63;;;18.57;100.00
11011;BME280;5558;42.702;23.178;2023-07-31T02:13:20;93419.88;;;18.79;100.00
11011;BME280;5558;42.702;23.178;2023-07-31T02:15:47;93422.88;;;18.78;100.00
11011;BME280;5558;42.702;23.178;2023-07-31T02:18:15;93430.00;;;18.82;100.00
11011;BME280;5558;42.702;23.178;2023-07-31T02:20:42;93425.56;;;18.78;100.00
11011;BME280;5558;42.702;23.178;2023-07-31T02:23:11;93429.69;;;18.75;100.00
11011;BME280;5558;42.702;23.178;2023-07-31T02:25:38;93423.03;;;18.81;100.00
11011;BME280;5558;42.702;23.178;2023-07-31T02:28:04;93387.59;;;18.59;100.00
11011;BME280;5558;42.702;23.178;2023-07-31T02:30:31;93422.09;;;18.77;100.00
11011;BME280;5558;42.702;23.178;2023-07-31T02:32:58;93424.31;;;18.84;100.00
11011;BME280;5558;42.702;23.178;2023-07-31T02:35:26;93418.13;;;18.92;100.00
11011;BME280;5558;42.702;23.178;2023-07-31T02:37:52;93420.47;;;18.93;100.00
11011;BME280;5558;42.702;23.178;2023-07-31T02:40:19;93415.91;;;18.94;100.00
11011;BME280;5558;42.702;23.178;2023-07-31T02:42:46;93425.03;;;18.93;100.00
11011;BME280;5558;42.702;23.178;2023-07-31T02:45:12;93424.44;;;18.96;100.00
11011;BME280;5558;42.702;23.178;2023-07-31T02:47:39;93427.56;;;18.98;100.00
11011;BME280;5558;42.702;23.178;2023-07-31T02:50:06;93432.63;;;18.91;100.00
11011;BME280;5558;42.702;23.178;2023-07-31T02:52:34;93430.56;;;18.96;100.00
11011;BME280;5558;42.702;23.178;2023-07-31T02:55:01;93435.59;;;18.98;100.00
11011;BME280;5558;42.702;23.178;2023-07-31T02:57:28;93439.22;;;19.02;100.00
11011;BME280;5558;42.702;23.178;2023-07-31T02:59:55;93432.47;;;18.96;100.00
11011;BME280;5558;42.702;23.178;2023-07-31T03:02:21;93435.44;;;18.94;100.00
11011;BME280;5558;42.702;23.178;2023-07-31T03:04:48;93434.03;;;18.97;100.00
11011;BME280;5558;42.702;23.178;2023-07-31T03:07:15;93430.06;;;19.03;100.00
11011;BME280;5558;42.702;23.178;2023-07-31T03:09:43;93429.25;;;19.11;100.00
11011;BME280;5558;42.702;23.178;2023-07-31T03:12:09;93426.94;;;19.01;100.00
11011;BME280;5558;42.702;23.178;2023-07-31T03:14:36;93425.91;;;19.14;100.00
11011;BME280;5558;42.702;23.178;2023-07-31T03:17:03;93424.47;;;19.16;100.00
11011;BME280;5558;42.702;23.178;2023-07-31T03:19:30;93427.78;;;19.22;100.00
11011;BME280;5558;42.702;23.178;2023-07-31T03:21:57;93425.91;;;19.14;100.00
11011;BME280;5558;42.702;23.178;2023-07-31T03:24:24;93429.84;;;19.16;100.00
11011;BME280;5558;42.702;23.178;2023-07-31T03:26:52;93423.41;;;19.09;100.00
11011;BME280;5558;42.702;23.178;2023-07-31T03:29:19;93428.13;;;19.12;100.00
11011;BME280;5558;42.702;23.178;2023-07-31T03:31:45;93438.69;;;19.17;100.00
11011;BME280;5558;42.702;23.178;2023-07-31T03:34:12;93439.34;;;19.14;100.00
11011;BME280;5558;42.702;23.178;2023-07-31T03:36:39;93431.63;;;19.12;100.00
11011;BME280;5558;42.702;23.178;2023-07-31T03:39:06;93446.41;;;19.18;100.00
11011;BME280;5558;42.702;23.178;2023-07-31T03:41:32;93440.44;;;19.13;100.00
11011;BME280;5558;42.702;23.178;2023-07-31T03:44:00;93439.00;;;19.15;100.00
11011;BME280;5558;42.702;23.178;2023-07-31T03:46:27;93441.88;;;19.10;100.00
11011;BME280;5558;42.702;23.178;2023-07-31T03:48:53;93451.31;;;19.16;100.00
11011;BME280;5558;42.702;23.178;2023-07-31T03:51:20;93452.75;;;19.14;100.00
11011;BME280;5558;42.702;23.178;2023-07-31T03:53:47;93446.41;;;19.18;100.00
11011;BME280;5558;42.702;23.178;2023-07-31T03:56:13;93444.66;;;19.22;100.00
11011;BME280;5558;42.702;23.178;2023-07-31T03:58:40;93447.34;;;19.22;100.00
11011;BME280;5558;42.702;23.178;2023-07-31T04:01:08;93436.47;;;19.19;100.00
11011;BME280;5558;42.702;23.178;2023-07-31T04:03:35;93440.22;;;19.26;100.00
11011;BME280;5558;42.702;23.178;2023-07-31T04:06:02;93445.00;;;19.29;100.00
11011;BME280;5558;42.702;23.178;2023-07-31T04:08:28;93444.03;;;19.25;100.00
11011;BME280;5558;42.702;23.178;2023-07-31T04:10:55;93440.06;;;19.31;100.00
11011;BME280;5558;42.702;23.178;2023-07-31T04:13:22;93428.88;;;19.29;100.00
11011;BME280;5558;42.702;23.178;2023-07-31T04:15:49;93440.81;;;19.40;100.00
11011;BME280;5558;42.702;23.178;2023-07-31T04:18:17;93437.94;;;19.46;100.00
11011;BME280;5558;42.702;23.178;2023-07-31T04:20:44;93453.69;;;19.56;100.00
11011;BME280;5558;42.702;23.178;2023-07-31T04:23:11;93426.94;;;19.38;100.00
11011;BME280;5558;42.702;23.178;2023-07-31T04:25:38;93456.13;;;19.69;100.00
11011;BME280;5558;42.702;23.178;2023-07-31T04:28:04;93454.53;;;19.77;100.00
11011;BME280;5558;42.702;23.178;2023-07-31T04:30:32;93443.84;;;19.89;100.00
11011;BME280;5558;42.702;23.178;2023-07-31T04:32:59;93454.34;;;20.23;100.00
11011;BME280;5558;42.702;23.178;2023-07-31T04:35:27;93447.50;;;20.67;100.00
11011;BME280;5558;42.702;23.178;2023-07-31T04:37:54;93439.47;;;21.23;100.00
11011;BME280;5558;42.702;23.178;2023-07-31T04:40:20;93440.69;;;22.38;100.00
11011;BME280;5558;42.702;23.178;2023-07-31T04:42:47;93449.97;;;24.01;100.00
11011;BME280;5558;42.702;23.178;2023-07-31T04:45:14;93424.16;;;25.41;100.00
11011;BME280;5558;42.702;23.178;2023-07-31T04:47:41;93443.97;;;26.72;84.62
11011;BME280;5558;42.702;23.178;2023-07-31T04:50:08;93445.22;;;27.95;72.24
11011;BME280;5558;42.702;23.178;2023-07-31T04:52:36;93441.53;;;29.03;64.73
11011;BME280;5558;42.702;23.178;2023-07-31T04:55:03;93436.25;;;30.08;57.12
11011;BME280;5558;42.702;23.178;2023-07-31T04:57:30;93434.56;;;30.84;51.98
11011;BME280;5558;42.702;23.178;2023-07-31T04:59:56;93438.59;;;29.99;52.89
11011;BME280;5558;42.702;23.178;2023-07-31T05:02:23;93431.13;;;29.26;55.07
11011;BME280;5558;42.702;23.178;2023-07-31T05:04:50;93436.41;;;28.87;57.96
11011;BME280;5558;42.702;23.178;2023-07-31T05:07:17;93426.31;;;27.65;63.91
11011;BME280;5558;42.702;23.178;2023-07-31T05:09:45;93421.63;;;25.74;76.96
11011;BME280;5558;42.702;23.178;2023-07-31T05:12:12;93422.00;;;24.47;89.12
11011;BME280;5558;42.702;23.178;2023-07-31T05:14:38;93409.97;;;25.05;86.78
11011;BME280;5558;42.702;23.178;2023-07-31T05:17:05;93427.78;;;26.53;72.43
11011;BME280;5558;42.702;23.178;2023-07-31T05:19:32;93437.72;;;27.37;66.72
11011;BME280;5558;42.702;23.178;2023-07-31T05:21:59;93438.88;;;28.34;59.31
11011;BME280;5558;42.702;23.178;2023-07-31T05:24:25;93434.06;;;28.79;56.37
11011;BME280;5558;42.702;23.178;2023-07-31T05:26:53;93437.13;;;28.05;58.02
11011;BME280;5558;42.702;23.178;2023-07-31T05:29:20;93438.56;;;27.48;60.05
11011;BME280;5558;42.702;23.178;2023-07-31T05:31:46;93437.78;;;26.75;62.75
11011;BME280;5558;42.702;23.178;2023-07-31T05:34:13;93426.16;;;25.92;69.18
11011;BME280;5558;42.702;23.178;2023-07-31T05:36:40;93426.03;;;25.37;73.39
11011;BME280;5558;42.702;23.178;2023-07-31T05:39:06;93429.59;;;26.41;69.36
11011;BME280;5558;42.702;23.178;2023-07-31T05:41:34;93429.44;;;28.21;57.24
11011;BME280;5558;42.702;23.178;2023-07-31T05:44:03;93441.66;;;29.45;51.13
11011;BME280;5558;42.702;23.178;2023-07-31T05:46:30;93434.31;;;30.26;49.61
11011;BME280;5558;42.702;23.178;2023-07-31T05:48:57;93438.50;;;31.59;45.15
11011;BME280;5558;42.702;23.178;2023-07-31T05:51:26;93441.53;;;32.23;42.82
11011;BME280;5558;42.702;23.178;2023-07-31T05:53:52;93447.06;;;32.19;40.93
11011;BME280;5558;42.702;23.178;2023-07-31T05:56:19;93462.78;;;32.08;40.29
11011;BME280;5558;42.702;23.178;2023-07-31T05:58:46;93451.53;;;31.31;42.28
11011;BME280;5558;42.702;23.178;2023-07-31T06:01:16;93448.34;;;30.14;43.78
11011;BME280;5558;42.702;23.178;2023-07-31T06:03:43;93447.31;;;28.80;47.99
11011;BME280;5558;42.702;23.178;2023-07-31T06:06:10;93441.03;;;27.24;52.42
11011;BME280;5558;42.702;23.178;2023-07-31T06:08:38;93444.47;;;25.99;59.56
11011;BME280;5558;42.702;23.178;2023-07-31T06:11:05;93445.22;;;25.28;64.35
11011;BME280;5558;42.702;23.178;2023-07-31T06:13:34;93434.97;;;24.57;70.39
11011;BME280;5558;42.702;23.178;2023-07-31T06:16:00;93458.38;;;24.50;71.68
11011;BME280;5558;42.702;23.178;2023-07-31T06:18:31;93454.06;;;24.10;74.21
11011;BME280;5558;42.702;23.178;2023-07-31T06:20:58;93449.53;;;23.83;76.64
11011;BME280;5558;42.702;23.178;2023-07-31T06:23:25;93451.94;;;23.54;79.45
11011;BME280;5558;42.702;23.178;2023-07-31T06:25:51;93454.91;;;23.49;81.66
11011;BME280;5558;42.702;23.178;2023-07-31T06:28:18;93453.97;;;24.80;72.45
11011;BME280;5558;42.702;23.178;2023-07-31T06:30:45;93467.38;;;26.54;59.69
11011;BME280;5558;42.702;23.178;2023-07-31T06:33:11;93467.34;;;26.24;60.60
11011;BME280;5558;42.702;23.178;2023-07-31T06:35:39;93464.72;;;26.61;59.38
11011;BME280;5558;42.702;23.178;2023-07-31T06:38:06;93474.31;;;26.77;57.62
11011;BME280;5558;42.702;23.178;2023-07-31T06:40:33;93462.69;;;26.24;60.40
11011;BME280;5558;42.702;23.178;2023-07-31T06:42:59;93467.78;;;25.13;66.34
11011;BME280;5558;42.702;23.178;2023-07-31T06:45:33;93481.66;;;24.35;70.88
11011;BME280;5558;42.702;23.178;2023-07-31T06:48:00;93468.91;;;24.01;72.67
11011;BME280;5558;42.702;23.178;2023-07-31T06:50:27;93457.66;;;23.83;74.62
11011;BME280;5558;42.702;23.178;2023-07-31T06:52:55;93453.94;;;23.41;77.78
11011;BME280;5558;42.702;23.178;2023-07-31T06:55:22;93451.44;;;23.21;81.85
11011;BME280;5558;42.702;23.178;2023-07-31T06:57:51;93458.69;;;23.17;82.96
11011;BME280;5558;42.702;23.178;2023-07-31T07:00:19;93459.16;;;23.50;80.75
11011;BME280;5558;42.702;23.178;2023-07-31T07:02:46;93453.13;;;25.59;66.67
11011;BME280;5558;42.702;23.178;2023-07-31T07:05:13;93465.69;;;25.67;61.80
11011;BME280;5558;42.702;23.178;2023-07-31T07:07:41;93443.31;;;26.00;59.93
11011;BME280;5558;42.702;23.178;2023-07-31T07:10:10;93425.13;;;26.86;55.20
11011;BME280;5558;42.702;23.178;2023-07-31T07:12:36;93463.75;;;28.29;51.79
11011;BME280;5558;42.702;23.178;2023-07-31T07:15:04;93461.88;;;29.26;48.19
11011;BME280;5558;42.702;23.178;2023-07-31T07:17:31;93454.56;;;29.48;45.70
11011;BME280;5558;42.702;23.178;2023-07-31T07:19:57;93464.25;;;29.38;45.80
11011;BME280;5558;42.702;23.178;2023-07-31T07:22:24;93447.63;;;28.64;48.16
11011;BME280;5558;42.702;23.178;2023-07-31T07:24:52;93453.47;;;28.73;48.01
11011;BME280;5558;42.702;23.178;2023-07-31T07:27:20;93453.66;;;27.86;48.36
11011;BME280;5558;42.702;23.178;2023-07-31T07:29:47;93454.66;;;27.27;50.86
11011;BME280;5558;42.702;23.178;2023-07-31T07:32:16;93458.03;;;26.51;53.51
11011;BME280;5558;42.702;23.178;2023-07-31T07:34:43;93448.97;;;26.70;54.80
11011;BME280;5558;42.702;23.178;2023-07-31T07:37:10;93443.41;;;26.63;55.82
11011;BME280;5558;42.702;23.178;2023-07-31T07:39:36;93450.06;;;26.65;55.20
11011;BME280;5558;42.702;23.178;2023-07-31T07:42:03;93456.63;;;26.34;55.22
11011;BME280;5558;42.702;23.178;2023-07-31T07:44:31;93446.59;;;26.09;56.93
11011;BME280;5558;42.702;23.178;2023-07-31T07:46:58;93453.06;;;25.78;56.72
11011;BME280;5558;42.702;23.178;2023-07-31T07:49:25;93457.78;;;25.36;59.22
11011;BME280;5558;42.702;23.178;2023-07-31T07:51:51;93441.22;;;25.41;58.30
11011;BME280;5558;42.702;23.178;2023-07-31T07:54:18;93455.44;;;25.57;60.75
11011;BME280;5558;42.702;23.178;2023-07-31T07:56:46;93449.97;;;25.80;59.05
11011;BME280;5558;42.702;23.178;2023-07-31T07:59:13;93446.69;;;25.45;58.03
11011;BME280;5558;42.702;23.178;2023-07-31T08:01:41;93458.38;;;25.07;58.57
11011;BME280;5558;42.702;23.178;2023-07-31T08:04:08;93476.13;;;25.04;60.48
11011;BME280;5558;42.702;23.178;2023-07-31T08:06:34;93470.94;;;24.77;59.49
11011;BME280;5558;42.702;23.178;2023-07-31T08:09:01;93452.78;;;24.77;59.59
11011;BME280;5558;42.702;23.178;2023-07-31T08:11:31;93465.47;;;25.15;58.43
11011;BME280;5558;42.702;23.178;2023-07-31T08:13:58;93458.47;;;25.33;56.47
11011;BME280;5558;42.702;23.178;2023-07-31T08:16:24;93466.34;;;25.38;56.69
11011;BME280;5558;42.702;23.178;2023-07-31T08:18:52;93455.06;;;25.59;58.51
11011;BME280;5558;42.702;23.178;2023-07-31T08:21:19;93455.44;;;25.15;57.38
11011;BME280;5558;42.702;23.178;2023-07-31T08:23:46;93466.19;;;24.89;60.09
11011;BME280;5558;42.702;23.178;2023-07-31T08:26:15;93461.34;;;24.79;60.08
11011;BME280;5558;42.702;23.178;2023-07-31T08:28:41;93448.50;;;24.57;61.05
11011;BME280;5558;42.702;23.178;2023-07-31T08:31:08;93456.69;;;24.80;60.78
11011;BME280;5558;42.702;23.178;2023-07-31T08:33:36;93457.78;;;24.94;60.83
11011;BME280;5558;42.702;23.178;2023-07-31T08:36:04;93460.25;;;25.03;58.34
11011;BME280;5558;42.702;23.178;2023-07-31T08:38:31;93452.06;;;25.22;56.66
11011;BME280;5558;42.702;23.178;2023-07-31T08:40:58;93453.94;;;25.18;55.99
11011;BME280;5558;42.702;23.178;2023-07-31T08:43:25;93454.59;;;25.53;55.89
11011;BME280;5558;42.702;23.178;2023-07-31T08:45:53;93455.75;;;25.33;55.93
11011;BME280;5558;42.702;23.178;2023-07-31T08:48:22;93461.66;;;25.16;58.59
11011;BME280;5558;42.702;23.178;2023-07-31T08:50:49;93457.25;;;25.08;59.65
11011;BME280;5558;42.702;23.178;2023-07-31T08:53:17;93454.41;;;25.23;58.43
11011;BME280;5558;42.702;23.178;2023-07-31T08:55:44;93463.03;;;25.06;59.04
11011;BME280;5558;42.702;23.178;2023-07-31T08:58:12;93453.47;;;25.35;54.70
11011;BME280;5558;42.702;23.178;2023-07-31T09:00:41;93444.97;;;25.82;53.84
11011;BME280;5558;42.702;23.178;2023-07-31T09:03:13;93454.47;;;25.69;57.80
11011;BME280;5558;42.702;23.178;2023-07-31T09:05:42;93458.47;;;24.91;59.74
11011;BME280;5558;42.702;23.178;2023-07-31T09:08:10;93457.19;;;24.47;58.88
11011;BME280;5558;42.702;23.178;2023-07-31T09:10:41;93449.38;;;24.80;60.58
11011;BME280;5558;42.702;23.178;2023-07-31T09:13:08;93437.91;;;25.32;56.95
11011;BME280;5558;42.702;23.178;2023-07-31T09:15:35;93445.31;;;25.54;58.58
11011;BME280;5558;42.702;23.178;2023-07-31T09:18:03;93440.41;;;25.63;56.64
11011;BME280;5558;42.702;23.178;2023-07-31T09:20:30;93440.59;;;25.74;57.22
11011;BME280;5558;42.702;23.178;2023-07-31T09:23:05;93446.38;;;25.72;54.20
11011;BME280;5558;42.702;23.178;2023-07-31T09:25:32;93431.53;;;25.89;55.33
11011;BME280;5558;42.702;23.178;2023-07-31T09:28:02;93445.69;;;26.27;53.86
11011;BME280;5558;42.702;23.178;2023-07-31T09:30:29;93437.69;;;26.38;52.70
11011;BME280;5558;42.702;23.178;2023-07-31T09:33:01;93443.16;;;26.41;52.26
11011;BME280;5558;42.702;23.178;2023-07-31T09:35:30;93435.78;;;26.42;51.36
11011;BME280;5558;42.702;23.178;2023-07-31T09:37:59;93439.56;;;26.04;53.00
11011;BME280;5558;42.702;23.178;2023-07-31T09:40:27;93436.31;;;25.99;52.65
11011;BME280;5558;42.702;23.178;2023-07-31T09:42:56;93429.88;;;26.07;53.27
11011;BME280;5558;42.702;23.178;2023-07-31T09:45:25;93439.25;;;26.39;50.57
11011;BME280;5558;42.702;23.178;2023-07-31T09:47:53;93436.00;;;26.30;50.85
11011;BME280;5558;42.702;23.178;2023-07-31T09:50:21;93440.09;;;26.17;50.53
11011;BME280;5558;42.702;23.178;2023-07-31T09:52:48;93431.34;;;26.57;50.67
11011;BME280;5558;42.702;23.178;2023-07-31T09:55:15;93429.44;;;26.90;49.17
11011;BME280;5558;42.702;23.178;2023-07-31T09:57:44;93429.50;;;26.97;47.53
11011;BME280;5558;42.702;23.178;2023-07-31T10:00:13;93414.44;;;27.03;48.23
11011;BME280;5558;42.702;23.178;2023-07-31T10:02:44;93425.47;;;26.84;47.98
11011;BME280;5558;42.702;23.178;2023-07-31T10:05:13;93418.94;;;26.59;47.23
11011;BME280;5558;42.702;23.178;2023-07-31T10:07:43;93419.19;;;26.77;50.17
11011;BME280;5558;42.702;23.178;2023-07-31T10:10:13;93415.03;;;26.57;49.12
11011;BME280;5558;42.702;23.178;2023-07-31T10:12:41;93423.03;;;26.46;50.67
11011;BME280;5558;42.702;23.178;2023-07-31T10:15:10;93421.34;;;26.34;48.73
11011;BME280;5558;42.702;23.178;2023-07-31T10:17:37;93426.66;;;26.54;49.46
11011;BME280;5558;42.702;23.178;2023-07-31T10:20:07;93413.13;;;26.27;48.04
11011;BME280;5558;42.702;23.178;2023-07-31T10:22:34;93415.06;;;26.01;49.12
11011;BME280;5558;42.702;23.178;2023-07-31T10:25:01;93410.47;;;26.05;50.24
11011;BME280;5558;42.702;23.178;2023-07-31T10:27:28;93411.78;;;26.14;48.85
11011;BME280;5558;42.702;23.178;2023-07-31T10:29:56;93419.44;;;26.35;46.89
11011;BME280;5558;42.702;23.178;2023-07-31T10:32:24;93401.34;;;26.79;47.26
11011;BME280;5558;42.702;23.178;2023-07-31T10:34:51;93402.75;;;26.99;46.22
11011;BME280;5558;42.702;23.178;2023-07-31T10:37:24;93404.06;;;26.79;47.65
11011;BME280;5558;42.702;23.178;2023-07-31T10:39:59;93406.50;;;26.88;45.27
11011;BME280;5558;42.702;23.178;2023-07-31T10:42:33;93407.19;;;26.81;44.43
11011;BME280;5558;42.702;23.178;2023-07-31T10:45:04;93401.78;;;27.21;44.32
11011;BME280;5558;42.702;23.178;2023-07-31T10:47:38;93401.41;;;27.63;43.36
11011;BME280;5558;42.702;23.178;2023-07-31T10:50:16;93408.50;;;27.75;42.30
11011;BME280;5558;42.702;23.178;2023-07-31T10:52:47;93377.19;;;27.44;42.45
11011;BME280;5558;42.702;23.178;2023-07-31T10:55:22;93405.31;;;27.66;42.46
11011;BME280;5558;42.702;23.178;2023-07-31T10:57:48;93397.94;;;27.66;40.08
11011;BME280;5558;42.702;23.178;2023-07-31T11:00:20;93392.94;;;27.72;40.52
11011;BME280;5558;42.702;23.178;2023-07-31T11:02:57;93394.69;;;27.46;39.87
11011;BME280;5558;42.702;23.178;2023-07-31T11:05:42;93395.94;;;27.59;41.69
11011;BME280;5558;42.702;23.178;2023-07-31T11:08:18;93382.63;;;27.47;41.61
11011;BME280;5558;42.702;23.178;2023-07-31T11:10:47;93392.47;;;27.19;40.84
11011;BME280;5558;42.702;23.178;2023-07-31T11:13:14;93391.91;;;27.39;41.65
11011;BME280;5558;42.702;23.178;2023-07-31T11:15:41;93396.78;;;27.64;41.65
11011;BME280;5558;42.702;23.178;2023-07-31T11:18:08;93391.72;;;27.66;41.42
11011;BME280;5558;42.702;23.178;2023-07-31T11:20:37;93390.28;;;27.31;43.50
11011;BME280;5558;42.702;23.178;2023-07-31T11:23:06;93377.19;;;27.44;44.86
11011;BME280;5558;42.702;23.178;2023-07-31T11:25:35;93380.38;;;27.16;44.09
11011;BME280;5558;42.702;23.178;2023-07-31T11:28:04;93383.91;;;26.80;43.25
11011;BME280;5558;42.702;23.178;2023-07-31T11:30:31;93395.72;;;26.62;44.79
11011;BME280;5558;42.702;23.178;2023-07-31T11:32:58;93401.91;;;26.62;43.80
11011;BME280;5558;42.702;23.178;2023-07-31T11:35:24;93401.97;;;26.36;44.12
11011;BME280;5558;42.702;23.178;2023-07-31T11:37:51;93385.56;;;26.25;46.19
11011;BME280;5558;42.702;23.178;2023-07-31T11:40:18;93384.25;;;26.45;46.49
11011;BME280;5558;42.702;23.178;2023-07-31T11:42:46;93374.41;;;26.64;45.17
11011;BME280;5558;42.702;23.178;2023-07-31T11:45:13;93385.22;;;26.60;45.92
11011;BME280;5558;42.702;23.178;2023-07-31T11:47:40;93350.59;;;26.50;46.18
11011;BME280;5558;42.702;23.178;2023-07-31T11:50:10;93387.97;;;26.97;46.29
11011;BME280;5558;42.702;23.178;2023-07-31T11:52:39;93375.75;;;27.17;46.67
11011;BME280;5558;42.702;23.178;2023-07-31T11:55:08;93379.97;;;27.11;46.64
11011;BME280;5558;42.702;23.178;2023-07-31T11:57:37;93366.06;;;27.19;47.23
11011;BME280;5558;42.702;23.178;2023-07-31T12:00:08;93353.97;;;27.13;47.27
11011;BME280;5558;42.702;23.178;2023-07-31T12:02:36;93362.09;;;27.50;46.00
11011;BME280;5558;42.702;23.178;2023-07-31T12:05:05;93355.63;;;27.72;47.82
11011;BME280;5558;42.702;23.178;2023-07-31T12:07:43;93366.66;;;27.39;47.88
11011;BME280;5558;42.702;23.178;2023-07-31T12:10:11;93361.13;;;27.28;46.03
11011;BME280;5558;42.702;23.178;2023-07-31T12:12:37;93333.69;;;27.04;44.56
11011;BME280;5558;42.702;23.178;2023-07-31T12:15:15;93357.16;;;27.22;45.79
11011;BME280;5558;42.702;23.178;2023-07-31T12:17:42;93358.44;;;27.32;46.54
11011;BME280;5558;42.702;23.178;2023-07-31T12:20:09;93351.31;;;27.20;43.82
11011;BME280;5558;42.702;23.178;2023-07-31T12:22:36;93350.94;;;27.22;44.34
11011;BME280;5558;42.702;23.178;2023-07-31T12:25:04;93347.88;;;27.27;46.02
11011;BME280;5558;42.702;23.178;2023-07-31T12:27:32;93353.13;;;27.46;45.20
11011;BME280;5558;42.702;23.178;2023-07-31T12:29:59;93351.94;;;27.03;43.78
11011;BME280;5558;42.702;23.178;2023-07-31T12:32:30;93356.13;;;26.94;44.31
11011;BME280;5558;42.702;23.178;2023-07-31T12:34:59;93345.44;;;27.15;46.47
11011;BME280;5558;42.702;23.178;2023-07-31T12:37:26;93319.78;;;27.09;46.05
11011;BME280;5558;42.702;23.178;2023-07-31T12:39:53;93358.56;;;27.06;44.61
11011;BME280;5558;42.702;23.178;2023-07-31T12:42:19;93354.66;;;27.03;44.71
11011;BME280;5558;42.702;23.178;2023-07-31T12:44:46;93347.72;;;27.13;45.14
11011;BME280;5558;42.702;23.178;2023-07-31T12:47:13;93347.53;;;27.28;45.44
11011;BME280;5558;42.702;23.178;2023-07-31T12:49:41;93345.19;;;27.81;45.38
11011;BME280;5558;42.702;23.178;2023-07-31T12:52:08;93334.91;;;28.15;44.44
11011;BME280;5558;42.702;23.178;2023-07-31T12:54:35;93337.94;;;27.99;43.84
11011;BME280;5558;42.702;23.178;2023-07-31T12:57:02;93332.97;;;28.12;44.80
11011;BME280;5558;42.702;23.178;2023-07-31T12:59:28;93336.09;;;28.17;42.91
11011;BME280;5558;42.702;23.178;2023-07-31T13:01:55;93327.38;;;27.87;42.08